Neguac, Canada
Current Conditions -  °F | °C
As of 7:00 PM on Saturday 25 Oct 2014 (Local Time) from CZBF Reporting Station
Drizzle Drizzle  
Wind Chill: 41°   Ceiling: 900
Heat Index: 41°   Visibility: 4mi
Dew Point: 39°   Wind: 3mph
Humidity: 93%   Direction: 20°NNE
Pressure: 29.59"   Gusts: NA
Location:  47.23°N, 65.05°W
Report Text: CZBF 252200Z 02003KT 330V060 4SM -DZ BR OVC009 05/04 A2959 RMK ST8 SLP023
Loading
Personal Weather Stations






























Interactive Weather Map
Tropical Storm Tracking
New forecast layout! Learn more

10-Day Weather Forecast

Advertisements
Track Severe Weather on mobile